createdAt,value
2022-10-17T00:01:01.055Z,98.14
2022-10-17T00:02:03.172Z,98.15
2022-10-17T00:03:05.530Z,98.22
2022-10-17T00:04:07.609Z,98.24
2022-10-17T00:05:09.480Z,98.36
2022-10-17T00:06:14.067Z,98.53
2022-10-17T00:07:15.995Z,98.75
2022-10-17T00:08:18.597Z,98.78
2022-10-17T00:09:20.679Z,98.80
2022-10-17T00:10:23.075Z,98.80
2022-10-17T00:11:24.956Z,99.08
2022-10-17T00:12:27.299Z,99.04
2022-10-17T00:13:30.322Z,98.95
2022-10-17T00:14:32.553Z,98.91
2022-10-17T00:15:34.748Z,99.26
2022-10-17T00:16:37.056Z,99.32
2022-10-17T00:17:39.064Z,99.24
2022-10-17T00:18:40.977Z,99.14
2022-10-17T00:19:43.120Z,99.05
2022-10-17T00:20:45.439Z,99.43
2022-10-17T00:21:48.873Z,99.48
2022-10-17T00:22:51.475Z,99.50
2022-10-17T00:23:54.979Z,99.43
2022-10-17T00:24:57.179Z,99.44
2022-10-17T00:26:05.000Z,99.48
2022-10-17T00:27:07.127Z,99.34
2022-10-17T00:29:21.509Z,98.75
2022-10-17T00:30:23.820Z,98.49
2022-10-17T00:31:25.943Z,98.34
2022-10-17T00:32:28.275Z,98.95
2022-10-17T00:33:31.646Z,99.22
2022-10-17T00:34:33.808Z,99.31
2022-10-17T00:35:35.723Z,99.44
2022-10-17T00:36:37.912Z,99.58
2022-10-17T00:37:40.153Z,99.51
2022-10-17T00:38:44.389Z,99.48
2022-10-17T00:39:46.328Z,99.53
2022-10-17T00:40:48.495Z,99.72
2022-10-17T00:41:50.760Z,99.76
2022-10-17T00:42:52.826Z,99.59
2022-10-17T00:44:01.079Z,99.62
2022-10-17T00:45:06.905Z,99.44
2022-10-17T00:46:09.025Z,99.09
2022-10-17T00:47:17.658Z,98.96
2022-10-17T00:48:23.311Z,99.03
2022-10-17T00:49:27.966Z,99.28
2022-10-17T00:50:30.751Z,99.57
2022-10-17T00:51:48.693Z,99.65
2022-10-17T00:52:52.221Z,99.80
2022-10-17T00:53:55.595Z,100.00
2022-10-17T00:55:03.923Z,100.00
2022-10-17T00:56:06.759Z,100.00
2022-10-17T00:57:10.207Z,100.00
2022-10-17T00:58:12.863Z,100.00
2022-10-17T00:59:17.010Z,100.00
2022-10-17T01:00:19.942Z,100.00
2022-10-17T01:01:22.907Z,100.00
2022-10-17T01:02:25.092Z,100.00
2022-10-17T01:03:27.497Z,99.74
2022-10-17T01:04:29.587Z,99.61
2022-10-17T01:05:31.774Z,99.56
2022-10-17T01:06:33.847Z,99.47
2022-10-17T01:07:37.538Z,99.57
2022-10-17T01:08:40.086Z,99.57
2022-10-17T01:09:44.497Z,99.63
2022-10-17T01:11:08.912Z,99.68
2022-10-17T01:12:26.437Z,99.77
2022-10-17T01:13:35.406Z,99.73
2022-10-17T01:15:03.570Z,99.71
2022-10-17T01:16:26.123Z,99.73
2022-10-17T01:17:57.747Z,99.81
2022-10-17T01:19:15.025Z,99.79
2022-10-17T01:21:50.489Z,100.00
2022-10-17T01:23:08.548Z,99.77
2022-10-17T01:24:31.655Z,99.49
2022-10-17T01:25:52.763Z,99.46
2022-10-17T01:27:04.142Z,99.47
2022-10-17T01:28:27.921Z,99.55
2022-10-17T01:29:33.688Z,99.61
2022-10-17T01:30:59.075Z,100.00
2022-10-17T01:32:16.826Z,100.00
2022-10-17T01:33:31.300Z,100.00
2022-10-17T01:35:54.867Z,99.18
2022-10-17T01:37:09.960Z,98.91
2022-10-17T01:39:30.273Z,99.15
2022-10-17T01:40:53.171Z,99.24
2022-10-17T01:42:01.873Z,99.54
2022-10-17T01:43:16.458Z,99.65
2022-10-17T01:44:31.183Z,99.80
2022-10-17T01:45:42.790Z,99.91
2022-10-17T01:46:48.666Z,100.00
2022-10-17T01:47:53.765Z,100.00
2022-10-17T01:48:59.478Z,100.00
2022-10-17T01:50:14.463Z,100.00
2022-10-17T01:51:20.127Z,100.00
2022-10-17T01:52:28.525Z,100.00
2022-10-17T01:53:37.084Z,100.00
2022-10-17T01:54:42.855Z,100.00
2022-10-17T01:55:47.397Z,100.00
2022-10-17T01:56:53.340Z,100.00
2022-10-17T01:57:59.187Z,100.00
2022-10-17T02:00:21.317Z,100.00
2022-10-17T02:01:26.030Z,99.78
2022-10-17T02:02:28.829Z,98.96
2022-10-17T02:03:32.830Z,98.61
2022-10-17T02:04:35.997Z,98.57
2022-10-17T02:05:40.904Z,98.78
2022-10-17T02:06:43.246Z,99.16
2022-10-17T02:07:45.181Z,99.41
2022-10-17T02:08:49.623Z,99.02
2022-10-17T02:09:52.015Z,98.62
2022-10-17T02:11:03.553Z,98.11
2022-10-17T02:12:25.863Z,97.90
2022-10-17T02:14:05.128Z,97.79
2022-10-17T02:15:26.252Z,97.86
2022-10-17T02:16:32.184Z,97.85
2022-10-17T02:17:50.051Z,97.89
2022-10-17T02:19:01.709Z,98.03
2022-10-17T02:20:07.805Z,98.07
2022-10-17T02:21:22.601Z,98.08
2022-10-17T02:22:31.288Z,98.04
2022-10-17T02:23:43.212Z,97.89
2022-10-17T02:25:01.053Z,97.91
2022-10-17T02:26:12.655Z,98.26
2022-10-17T02:27:16.342Z,98.95
2022-10-17T02:28:22.094Z,99.69
2022-10-17T02:29:27.825Z,100.00
2022-10-17T02:30:53.467Z,100.00
2022-10-17T02:32:02.062Z,100.00
2022-10-17T02:33:10.768Z,100.00
2022-10-17T02:34:28.641Z,100.00
2022-10-17T02:36:45.535Z,100.00
2022-10-17T02:37:49.487Z,100.00
2022-10-17T02:38:53.831Z,100.00
2022-10-17T02:39:59.456Z,100.00
2022-10-17T02:41:03.032Z,99.90
2022-10-17T02:42:08.414Z,99.61
2022-10-17T02:43:11.100Z,99.38
2022-10-17T02:44:14.212Z,99.32
2022-10-17T02:45:17.093Z,99.41
2022-10-17T02:46:22.834Z,99.53
2022-10-17T02:47:34.544Z,99.45
2022-10-17T02:48:39.849Z,99.39
2022-10-17T02:49:45.542Z,99.45
2022-10-17T02:50:54.055Z,99.42
2022-10-17T02:52:02.611Z,98.97
2022-10-17T02:53:08.275Z,98.47
2022-10-17T02:54:39.980Z,98.31
2022-10-17T02:55:51.720Z,98.44
2022-10-17T02:57:13.079Z,98.58
2022-10-17T02:58:24.754Z,98.51
2022-10-17T02:59:30.122Z,98.66
2022-10-17T03:00:33.989Z,98.82
2022-10-17T03:01:36.273Z,98.71
2022-10-17T03:02:44.137Z,98.74
2022-10-17T03:03:46.428Z,98.76
2022-10-17T03:04:48.669Z,98.90
2022-10-17T03:05:51.334Z,99.08
2022-10-17T03:06:53.605Z,99.32
2022-10-17T03:07:56.473Z,99.51
2022-10-17T03:08:58.365Z,99.48
2022-10-17T03:10:00.362Z,99.44
2022-10-17T03:11:02.642Z,99.33
2022-10-17T03:12:05.263Z,99.30
2022-10-17T03:13:07.270Z,99.29
2022-10-17T03:14:09.474Z,99.29
2022-10-17T03:15:12.518Z,99.60
2022-10-17T03:16:14.757Z,100.00
2022-10-17T03:17:17.290Z,100.00
2022-10-17T03:18:19.172Z,100.00
2022-10-17T03:19:21.243Z,100.00
2022-10-17T03:20:23.276Z,100.00
2022-10-17T03:21:25.174Z,100.00
2022-10-17T03:22:27.401Z,100.00
2022-10-17T03:23:29.560Z,100.00
2022-10-17T03:24:31.442Z,100.00
2022-10-17T03:25:33.448Z,100.00
2022-10-17T03:26:35.575Z,100.00
2022-10-17T03:27:37.868Z,100.00
2022-10-17T03:28:40.116Z,100.00
2022-10-17T03:29:42.284Z,100.00
2022-10-17T03:30:44.293Z,100.00
2022-10-17T03:31:46.175Z,100.00
2022-10-17T03:32:48.087Z,99.93
2022-10-17T03:33:49.980Z,99.96
2022-10-17T03:34:51.884Z,99.94
2022-10-17T03:36:00.517Z,99.91
2022-10-17T03:37:02.512Z,99.84
2022-10-17T03:38:05.648Z,99.80
2022-10-17T03:39:07.738Z,99.67
2022-10-17T03:40:10.909Z,99.78
2022-10-17T03:41:13.044Z,100.00
2022-10-17T03:42:14.923Z,100.00
2022-10-17T03:43:16.910Z,100.00
2022-10-17T03:44:20.683Z,100.00
2022-10-17T03:45:22.662Z,100.00
2022-10-17T03:46:29.619Z,100.00
2022-10-17T03:47:32.500Z,100.00
2022-10-17T03:48:34.873Z,100.00
2022-10-17T03:49:36.766Z,100.00
2022-10-17T03:50:38.951Z,100.00
2022-10-17T03:51:42.846Z,100.00
2022-10-17T03:52:48.761Z,100.00
2022-10-17T03:53:52.698Z,100.00
2022-10-17T03:54:54.700Z,100.00
2022-10-17T03:56:00.980Z,100.00
2022-10-17T03:57:05.016Z,100.00
2022-10-17T03:58:07.247Z,100.00
2022-10-17T03:59:12.667Z,100.00
2022-10-17T04:00:17.139Z,100.00
2022-10-17T04:01:21.079Z,100.00
2022-10-17T04:02:23.444Z,100.00
2022-10-17T04:03:27.539Z,100.00
2022-10-17T04:04:29.505Z,100.00
2022-10-17T04:05:31.863Z,100.00
2022-10-17T04:06:35.273Z,100.00
2022-10-17T04:07:39.908Z,100.00
2022-10-17T04:08:42.358Z,100.00
2022-10-17T04:09:45.550Z,100.00
2022-10-17T04:10:49.479Z,100.00
2022-10-17T04:11:51.657Z,100.00
2022-10-17T04:13:02.668Z,100.00
2022-10-17T04:14:05.391Z,100.00
2022-10-17T04:15:08.760Z,100.00
2022-10-17T04:16:16.265Z,100.00
2022-10-17T04:17:18.360Z,100.00
2022-10-17T04:18:20.390Z,100.00
2022-10-17T04:19:22.275Z,100.00
2022-10-17T04:20:24.276Z,100.00
2022-10-17T04:21:28.998Z,100.00
2022-10-17T04:22:32.686Z,100.00
2022-10-17T04:23:35.124Z,100.00
2022-10-17T04:24:37.016Z,100.00
2022-10-17T04:25:38.921Z,100.00
2022-10-17T04:26:41.046Z,100.00
2022-10-17T04:27:42.940Z,100.00
2022-10-17T04:28:44.815Z,100.00
2022-10-17T04:29:46.815Z,100.00
2022-10-17T04:31:01.187Z,100.00
2022-10-17T04:32:03.520Z,100.00
2022-10-17T04:33:05.608Z,100.00
2022-10-17T04:34:07.563Z,100.00
2022-10-17T04:35:09.571Z,100.00
2022-10-17T04:36:15.910Z,100.00
2022-10-17T04:37:17.940Z,100.00
2022-10-17T04:38:20.704Z,100.00
2022-10-17T04:39:23.780Z,100.00
2022-10-17T04:40:25.786Z,100.00
2022-10-17T04:41:27.683Z,100.00
2022-10-17T04:42:32.953Z,100.00
2022-10-17T04:43:36.607Z,100.00
2022-10-17T04:44:38.571Z,100.00
2022-10-17T04:45:40.577Z,100.00
2022-10-17T04:46:42.680Z,100.00
2022-10-17T04:47:44.609Z,100.00
2022-10-17T04:48:48.445Z,100.00
2022-10-17T04:49:50.630Z,100.00
2022-10-17T04:50:58.274Z,100.00
2022-10-17T04:52:00.263Z,100.00
2022-10-17T04:53:02.323Z,100.00
2022-10-17T04:54:04.505Z,100.00
2022-10-17T04:55:07.325Z,100.00
2022-10-17T04:56:16.353Z,100.00
2022-10-17T04:57:19.498Z,100.00
2022-10-17T04:58:21.989Z,100.00
2022-10-17T04:59:23.896Z,100.00
2022-10-17T05:00:25.882Z,100.00
2022-10-17T05:01:27.930Z,100.00
2022-10-17T05:02:30.206Z,100.00
2022-10-17T05:03:33.906Z,100.00
2022-10-17T05:04:36.010Z,100.00
2022-10-17T05:05:41.703Z,100.00
2022-10-17T05:06:43.827Z,100.00
2022-10-17T05:07:45.783Z,100.00
2022-10-17T05:08:47.869Z,100.00
2022-10-17T05:09:49.740Z,100.00
2022-10-17T05:10:51.800Z,100.00
2022-10-17T05:11:54.103Z,100.00
2022-10-17T05:12:56.212Z,100.00
2022-10-17T05:14:00.229Z,100.00
2022-10-17T05:15:02.121Z,100.00
2022-10-17T05:16:04.733Z,100.00
2022-10-17T05:17:06.674Z,100.00
2022-10-17T05:18:08.570Z,100.00
2022-10-17T05:19:12.706Z,100.00
2022-10-17T05:20:15.293Z,100.00
2022-10-17T05:21:17.491Z,100.00
2022-10-17T05:22:19.510Z,100.00
2022-10-17T05:23:22.258Z,100.00
2022-10-17T05:24:24.142Z,100.00
2022-10-17T05:25:26.197Z,100.00
2022-10-17T05:26:28.193Z,100.00
2022-10-17T05:27:30.100Z,100.00
2022-10-17T05:28:33.353Z,100.00
2022-10-17T05:29:35.323Z,100.00
2022-10-17T05:30:37.721Z,100.00
2022-10-17T05:32:51.937Z,100.00
2022-10-17T05:33:54.397Z,100.00
2022-10-17T05:34:56.423Z,100.00
2022-10-17T05:35:59.181Z,100.00
2022-10-17T05:37:01.279Z,100.00
2022-10-17T05:38:03.221Z,100.00
2022-10-17T05:39:05.143Z,100.00
2022-10-17T05:40:08.351Z,100.00
2022-10-17T05:41:10.397Z,100.00
2022-10-17T05:42:14.938Z,100.00
2022-10-17T05:43:17.426Z,100.00
2022-10-17T05:44:19.520Z,100.00
2022-10-17T05:45:21.784Z,100.00
2022-10-17T05:46:23.767Z,100.00
2022-10-17T05:47:25.875Z,100.00
2022-10-17T05:48:27.790Z,100.00
2022-10-17T05:49:43.963Z,100.00
2022-10-17T05:50:34.523Z,100.00
2022-10-17T05:51:36.489Z,100.00
2022-10-17T05:52:38.573Z,100.00
2022-10-17T05:53:41.318Z,100.00
2022-10-17T05:54:43.492Z,100.00
2022-10-17T05:55:45.425Z,100.00
2022-10-17T05:56:52.918Z,99.86
2022-10-17T05:57:54.837Z,99.70
2022-10-17T05:59:01.004Z,99.58
2022-10-17T06:00:01.710Z,99.57
2022-10-17T06:01:07.129Z,99.36
2022-10-17T06:02:12.497Z,99.29
2022-10-17T06:03:14.750Z,99.19
2022-10-17T06:04:17.199Z,99.17
2022-10-17T06:05:19.763Z,99.13
2022-10-17T06:06:22.295Z,99.07
2022-10-17T06:07:24.201Z,99.03
2022-10-17T06:08:26.087Z,98.98
2022-10-17T06:09:28.427Z,98.86
2022-10-17T06:10:30.427Z,98.73
2022-10-17T06:11:32.505Z,98.48
2022-10-17T06:12:34.408Z,98.23
2022-10-17T06:13:36.695Z,98.20
2022-10-17T06:14:38.585Z,98.08
2022-10-17T06:15:40.462Z,97.91
2022-10-17T06:16:42.477Z,97.59
2022-10-17T06:17:44.483Z,97.00
2022-10-17T06:18:46.397Z,96.14
2022-10-17T06:19:48.435Z,93.83
2022-10-17T06:20:50.424Z,92.23
2022-10-17T06:21:52.400Z,90.80
2022-10-17T06:22:55.036Z,89.55
2022-10-17T06:23:56.952Z,87.67
2022-10-17T06:24:58.829Z,86.54
2022-10-17T06:26:02.860Z,85.40
2022-10-17T06:27:09.339Z,84.58
2022-10-17T06:28:08.719Z,83.17
2022-10-17T06:29:10.717Z,81.86
2022-10-17T06:30:13.767Z,81.08
2022-10-17T06:31:16.936Z,80.80
2022-10-17T06:32:19.113Z,80.11
2022-10-17T06:33:21.549Z,79.40
2022-10-17T06:34:23.637Z,79.21
2022-10-17T06:35:25.528Z,78.84
2022-10-17T06:36:27.512Z,78.71
2022-10-17T06:37:36.452Z,78.26
2022-10-17T06:38:37.778Z,79.27
2022-10-17T06:39:39.671Z,78.85
2022-10-17T06:40:41.667Z,78.22
2022-10-17T06:41:43.809Z,77.19
2022-10-17T06:42:45.767Z,76.27
2022-10-17T06:43:48.179Z,75.73
2022-10-17T06:44:50.150Z,75.20
2022-10-17T06:45:52.061Z,75.10
2022-10-17T06:46:54.425Z,74.98
2022-10-17T06:47:56.300Z,74.91
2022-10-17T06:48:58.176Z,75.05
2022-10-17T06:50:00.059Z,75.13
2022-10-17T06:51:04.057Z,74.48
2022-10-17T06:52:06.098Z,74.05
2022-10-17T06:53:08.055Z,74.40
2022-10-17T06:54:09.933Z,74.40
2022-10-17T06:55:12.029Z,74.24
2022-10-17T06:56:14.714Z,74.35
2022-10-17T06:57:17.421Z,73.84
2022-10-17T06:58:19.416Z,73.39
2022-10-17T06:59:22.149Z,73.44
2022-10-17T07:00:24.412Z,73.10
2022-10-17T07:01:26.356Z,72.84
2022-10-17T07:02:28.566Z,72.88
2022-10-17T07:03:31.768Z,72.63
2022-10-17T07:04:33.676Z,73.11
2022-10-17T07:05:35.555Z,72.23
2022-10-17T07:06:38.065Z,72.71
2022-10-17T07:07:43.116Z,72.04
2022-10-17T07:08:45.216Z,71.56
2022-10-17T07:09:47.135Z,71.21
2022-10-17T07:10:50.108Z,70.91
2022-10-17T07:11:54.017Z,70.69
2022-10-17T07:12:55.955Z,70.34
2022-10-17T07:13:58.061Z,70.55
2022-10-17T07:15:00.064Z,70.32
2022-10-17T07:16:02.454Z,70.67
2022-10-17T07:17:04.597Z,70.49
2022-10-17T07:18:06.986Z,70.42
2022-10-17T07:19:08.951Z,69.68
2022-10-17T07:20:12.103Z,69.67
2022-10-17T07:21:14.105Z,69.77
2022-10-17T07:22:16.123Z,69.18
2022-10-17T07:23:21.100Z,69.12
2022-10-17T07:24:23.274Z,68.75
2022-10-17T07:25:25.518Z,68.54
2022-10-17T07:26:27.964Z,68.23
2022-10-17T07:27:30.273Z,68.61
2022-10-17T07:28:38.157Z,68.51
2022-10-17T07:29:40.531Z,67.91
2022-10-17T07:30:42.916Z,67.62
2022-10-17T07:31:45.269Z,67.51
2022-10-17T07:32:47.458Z,67.29
2022-10-17T07:33:49.934Z,67.03
2022-10-17T07:34:52.141Z,67.09
2022-10-17T07:35:54.025Z,66.65
2022-10-17T07:36:56.607Z,66.94
2022-10-17T07:37:58.528Z,66.10
2022-10-17T07:39:00.605Z,66.00
2022-10-17T07:40:03.638Z,66.07
2022-10-17T07:41:07.549Z,65.87
2022-10-17T07:42:09.630Z,66.01
2022-10-17T07:43:11.666Z,65.27
2022-10-17T07:44:13.591Z,65.53
2022-10-17T07:45:15.494Z,65.66
2022-10-17T07:46:17.597Z,64.94
2022-10-17T07:47:20.309Z,65.48
2022-10-17T07:48:23.676Z,65.39
2022-10-17T07:49:25.588Z,64.96
2022-10-17T07:50:28.926Z,64.63
2022-10-17T07:51:31.159Z,64.82
2022-10-17T07:52:33.554Z,65.17
2022-10-17T07:53:37.443Z,64.94
2022-10-17T07:54:39.752Z,64.96
2022-10-17T07:55:42.457Z,63.90
2022-10-17T07:56:44.598Z,63.92
2022-10-17T07:57:46.488Z,64.07
2022-10-17T07:58:48.467Z,63.70
2022-10-17T07:59:50.711Z,63.97
2022-10-17T08:00:52.881Z,63.86
2022-10-17T08:01:59.274Z,63.79
2022-10-17T08:03:01.291Z,63.81
2022-10-17T08:04:03.421Z,63.44
2022-10-17T08:05:06.160Z,63.76
2022-10-17T08:06:08.145Z,63.71
2022-10-17T08:07:19.572Z,64.03
2022-10-17T08:08:17.530Z,63.41
2022-10-17T08:09:18.558Z,62.92
2022-10-17T08:10:21.792Z,63.03
2022-10-17T08:11:23.958Z,62.84
2022-10-17T08:12:27.179Z,62.65
2022-10-17T08:13:29.507Z,62.75
2022-10-17T08:14:31.645Z,62.30
2022-10-17T08:15:33.541Z,62.29
2022-10-17T08:16:36.035Z,62.45
2022-10-17T08:17:38.936Z,61.87
2022-10-17T08:18:42.655Z,62.05
2022-10-17T08:19:44.587Z,62.07
2022-10-17T08:20:46.610Z,62.61
2022-10-17T08:22:59.838Z,62.92
2022-10-17T08:24:01.731Z,62.86
2022-10-17T08:25:04.962Z,62.52
2022-10-17T08:26:08.504Z,62.78
2022-10-17T08:27:10.447Z,62.98
2022-10-17T08:28:12.406Z,62.99
2022-10-17T08:29:15.915Z,62.93
2022-10-17T08:30:18.026Z,62.58
2022-10-17T08:31:20.704Z,62.05
2022-10-17T08:32:25.974Z,62.54
2022-10-17T08:33:27.903Z,62.00
2022-10-17T08:34:29.819Z,62.26
2022-10-17T08:35:31.710Z,62.20
2022-10-17T08:36:33.893Z,61.97
2022-10-17T08:37:36.073Z,61.88
2022-10-17T08:38:40.365Z,61.88
2022-10-17T08:39:42.555Z,61.42
2022-10-17T08:40:48.159Z,61.24
2022-10-17T08:42:24.394Z,61.72
2022-10-17T08:43:53.205Z,61.40
2022-10-17T08:45:15.870Z,60.83
2022-10-17T08:46:20.029Z,61.29
2022-10-17T08:48:48.698Z,60.87
2022-10-17T08:49:54.363Z,60.91
2022-10-17T08:51:03.257Z,60.99
2022-10-17T08:52:08.947Z,61.37
2022-10-17T08:53:32.788Z,61.25
2022-10-17T08:55:54.045Z,61.45
2022-10-17T08:56:56.914Z,60.90
2022-10-17T08:57:59.409Z,60.76
2022-10-17T08:59:08.126Z,61.21
2022-10-17T09:00:14.588Z,59.85
2022-10-17T09:01:26.566Z,59.95
2022-10-17T09:02:37.876Z,59.24
2022-10-17T09:03:44.635Z,58.79
2022-10-17T09:04:56.521Z,58.20
2022-10-17T09:06:07.987Z,57.92
2022-10-17T09:07:13.669Z,58.20
2022-10-17T09:08:34.599Z,58.18
2022-10-17T09:09:40.351Z,58.12
2022-10-17T09:10:46.122Z,57.92
2022-10-17T09:11:58.022Z,58.15
2022-10-17T09:13:06.981Z,57.39
2022-10-17T09:14:31.229Z,57.20
2022-10-17T09:16:01.585Z,57.43
2022-10-17T09:17:19.545Z,57.44
2022-10-17T09:18:28.049Z,57.78
2022-10-17T09:19:42.474Z,57.56
2022-10-17T09:20:51.025Z,56.63
2022-10-17T09:21:59.791Z,56.89
2022-10-17T09:24:21.743Z,57.42
2022-10-17T09:25:25.240Z,56.28
2022-10-17T09:26:28.050Z,56.27
2022-10-17T09:27:33.688Z,56.68
2022-10-17T09:28:38.229Z,56.26
2022-10-17T09:29:44.033Z,56.14
2022-10-17T09:30:55.416Z,56.02
2022-10-17T09:32:03.972Z,56.69
2022-10-17T09:33:28.436Z,56.71
2022-10-17T09:34:26.683Z,56.08
2022-10-17T09:35:28.946Z,55.88
2022-10-17T09:36:36.047Z,55.76
2022-10-17T09:37:38.453Z,56.28
2022-10-17T09:38:43.187Z,56.64
2022-10-17T09:39:45.768Z,55.92
2022-10-17T09:40:56.954Z,55.69
2022-10-17T09:42:00.854Z,55.56
2022-10-17T09:43:05.199Z,55.73
2022-10-17T09:44:16.688Z,55.29
2022-10-17T09:45:21.649Z,55.43
2022-10-17T09:46:35.822Z,55.34
2022-10-17T09:50:24.078Z,54.52
2022-10-17T09:51:26.874Z,54.53
2022-10-17T09:52:35.771Z,54.48
2022-10-17T09:53:40.675Z,54.88
2022-10-17T09:54:49.497Z,55.31
2022-10-17T09:55:58.261Z,55.27
2022-10-17T09:57:03.930Z,55.39
2022-10-17T09:58:07.813Z,54.91
2022-10-17T09:59:13.932Z,55.43
2022-10-17T10:00:22.465Z,55.33
2022-10-17T10:01:27.579Z,55.28
2022-10-17T10:02:31.071Z,55.31
2022-10-17T10:03:33.410Z,55.54
2022-10-17T10:04:41.544Z,55.51
2022-10-17T10:05:41.110Z,55.36
2022-10-17T10:07:04.341Z,55.34
2022-10-17T10:08:18.308Z,54.22
2022-10-17T10:09:23.184Z,54.33
2022-10-17T10:10:28.173Z,54.19
2022-10-17T10:11:49.236Z,53.98
2022-10-17T10:13:16.524Z,53.56
2022-10-17T10:14:34.828Z,53.47
2022-10-17T10:15:39.786Z,53.72
2022-10-17T10:16:44.656Z,53.83
2022-10-17T10:17:46.732Z,53.87
2022-10-17T10:18:50.966Z,53.91
2022-10-17T10:19:53.716Z,53.63
2022-10-17T10:21:08.263Z,53.77
2022-10-17T10:22:15.927Z,53.53
2022-10-17T10:23:18.940Z,53.77
2022-10-17T10:24:20.843Z,53.92
2022-10-17T10:25:22.911Z,53.63
2022-10-17T10:26:28.616Z,52.99
2022-10-17T10:27:30.787Z,52.49
2022-10-17T10:28:35.644Z,51.96
2022-10-17T10:29:43.402Z,52.30
2022-10-17T10:30:48.838Z,51.98
2022-10-17T10:31:52.867Z,51.68
2022-10-17T10:32:58.151Z,51.40
2022-10-17T10:34:03.091Z,51.47
2022-10-17T10:35:23.286Z,50.68
2022-10-17T10:36:27.795Z,50.74
2022-10-17T10:37:39.358Z,50.94
2022-10-17T10:38:41.965Z,50.75
2022-10-17T10:39:50.819Z,50.94
2022-10-17T10:40:57.324Z,50.98
2022-10-17T10:42:02.369Z,50.59
2022-10-17T10:43:05.973Z,50.74
2022-10-17T10:44:11.626Z,50.26
2022-10-17T10:45:46.443Z,50.52
2022-10-17T10:46:28.191Z,50.75
2022-10-17T10:47:32.511Z,50.81
2022-10-17T10:48:36.426Z,50.84
2022-10-17T10:49:38.909Z,50.38
2022-10-17T10:52:03.281Z,50.08
2022-10-17T10:53:09.068Z,50.29
2022-10-17T10:54:17.520Z,49.76
2022-10-17T10:55:32.127Z,49.71
2022-10-17T10:56:43.678Z,49.70
2022-10-17T10:57:48.850Z,49.91
2022-10-17T10:59:10.128Z,49.00
2022-10-17T11:00:16.635Z,49.06
2022-10-17T11:01:25.003Z,49.14
2022-10-17T11:02:39.427Z,49.17
2022-10-17T11:04:03.361Z,49.43
2022-10-17T11:05:15.425Z,50.09
2022-10-17T11:06:21.704Z,49.15
2022-10-17T11:07:33.498Z,49.28
2022-10-17T11:08:44.939Z,49.24
2022-10-17T11:10:12.304Z,49.12
2022-10-17T11:11:20.911Z,49.29
2022-10-17T11:12:32.849Z,49.11
2022-10-17T11:13:44.680Z,49.58
2022-10-17T11:15:02.653Z,49.61
2022-10-17T11:16:43.546Z,49.46
2022-10-17T11:17:52.217Z,49.71
2022-10-17T11:19:16.212Z,49.15
2022-10-17T11:20:25.585Z,49.07
2022-10-17T11:22:51.378Z,48.22
2022-10-17T11:23:59.799Z,48.41
2022-10-17T11:25:24.086Z,48.11
2022-10-17T11:26:29.768Z,48.22
2022-10-17T11:27:33.734Z,47.98
2022-10-17T11:28:36.039Z,47.97
2022-10-17T11:29:41.504Z,48.14
2022-10-17T11:30:47.312Z,48.18
2022-10-17T11:31:53.257Z,48.23
2022-10-17T11:32:59.309Z,48.23
2022-10-17T11:34:04.983Z,48.00
2022-10-17T11:35:29.026Z,47.22
2022-10-17T11:36:35.119Z,47.46
2022-10-17T11:37:40.931Z,47.36
2022-10-17T11:38:46.936Z,47.72
2022-10-17T11:40:05.204Z,47.48
2022-10-17T11:41:13.769Z,47.70
2022-10-17T11:42:22.470Z,47.62
2022-10-17T11:43:34.035Z,47.36
2022-10-17T11:44:38.926Z,47.40
2022-10-17T11:45:44.764Z,47.48
2022-10-17T11:46:50.582Z,47.28
2022-10-17T11:48:02.391Z,47.11
2022-10-17T11:49:19.181Z,47.26
2022-10-17T11:53:02.638Z,47.90
2022-10-17T11:53:57.176Z,47.82
2022-10-17T11:56:19.518Z,47.94
2022-10-17T11:57:48.421Z,47.67
2022-10-17T11:58:54.589Z,47.22
2022-10-17T12:00:20.350Z,47.24
2022-10-17T12:01:40.277Z,46.70
2022-10-17T12:02:48.877Z,47.03
2022-10-17T12:03:57.414Z,47.02
2022-10-17T12:05:03.164Z,46.91
2022-10-17T12:06:29.566Z,46.85
2022-10-17T12:08:59.013Z,46.61
2022-10-17T12:10:38.534Z,46.42
2022-10-17T12:11:50.607Z,46.71
2022-10-17T12:12:52.647Z,46.22
2022-10-17T12:13:55.759Z,46.08
2022-10-17T12:15:18.268Z,46.08
2022-10-17T12:16:24.077Z,45.51
2022-10-17T12:17:36.615Z,45.62
2022-10-17T12:18:38.789Z,45.60
2022-10-17T12:19:40.908Z,45.87
2022-10-17T12:20:43.093Z,45.78
2022-10-17T12:22:00.699Z,45.49
2022-10-17T12:23:12.383Z,45.42
2022-10-17T12:24:26.700Z,45.55
2022-10-17T12:26:41.651Z,45.22
2022-10-17T12:27:44.315Z,45.71
2022-10-17T12:28:47.575Z,45.85
2022-10-17T12:29:51.992Z,46.34
2022-10-17T12:31:03.374Z,46.34
2022-10-17T12:32:12.210Z,46.33
2022-10-17T12:33:20.728Z,45.95
2022-10-17T12:34:23.869Z,45.18
2022-10-17T12:35:27.346Z,44.86
2022-10-17T12:36:34.572Z,44.78
2022-10-17T12:37:52.974Z,44.65
2022-10-17T12:39:05.170Z,44.86
2022-10-17T12:40:37.646Z,44.83
2022-10-17T12:41:44.639Z,44.78
2022-10-17T12:42:49.400Z,44.88
2022-10-17T12:43:53.131Z,45.11
2022-10-17T12:44:55.179Z,44.93
2022-10-17T12:45:58.942Z,44.88
2022-10-17T12:47:10.544Z,45.02
2022-10-17T12:48:34.465Z,45.23
2022-10-17T12:49:42.873Z,45.06
2022-10-17T12:51:30.859Z,45.07
2022-10-17T12:52:18.463Z,44.60
2022-10-17T12:53:24.484Z,44.71
2022-10-17T12:54:31.402Z,45.05
2022-10-17T12:55:34.328Z,44.95
2022-10-17T12:56:40.105Z,44.96
2022-10-17T12:57:58.679Z,45.31
2022-10-17T12:59:02.836Z,44.98
2022-10-17T13:00:25.418Z,45.36
2022-10-17T13:01:31.170Z,45.23
2022-10-17T13:02:33.720Z,45.68
2022-10-17T13:03:40.503Z,45.80
2022-10-17T13:04:42.702Z,45.87
2022-10-17T13:05:48.904Z,45.74
2022-10-17T13:06:54.296Z,45.53
2022-10-17T13:07:59.974Z,45.53
2022-10-17T13:09:05.667Z,45.88
2022-10-17T13:10:24.312Z,45.89
2022-10-17T13:11:29.489Z,46.09
2022-10-17T13:12:38.922Z,46.06
2022-10-17T13:13:48.867Z,46.10
2022-10-17T13:14:53.207Z,45.87
2022-10-17T13:15:55.250Z,45.77
2022-10-17T13:17:02.757Z,45.88
2022-10-17T13:18:08.294Z,45.91
2022-10-17T13:19:17.375Z,45.39
2022-10-17T13:20:25.454Z,45.45
2022-10-17T13:21:27.401Z,45.61
2022-10-17T13:22:32.786Z,45.10
2022-10-17T13:23:37.210Z,45.10
2022-10-17T13:24:40.575Z,45.50
2022-10-17T13:25:42.481Z,45.81
2022-10-17T13:26:45.430Z,45.79
2022-10-17T13:27:48.984Z,45.79
2022-10-17T13:29:12.977Z,46.08
2022-10-17T13:30:32.266Z,46.50
2022-10-17T13:31:38.977Z,46.19
2022-10-17T13:32:42.788Z,46.21
2022-10-17T13:33:44.679Z,46.11
2022-10-17T13:34:50.296Z,45.94
2022-10-17T13:35:59.893Z,46.29
2022-10-17T13:37:02.784Z,46.18
2022-10-17T13:38:06.027Z,46.02
2022-10-17T13:39:13.130Z,46.09
2022-10-17T13:40:40.831Z,46.33
2022-10-17T13:41:36.279Z,46.33
2022-10-17T13:42:39.779Z,46.36
2022-10-17T13:43:44.369Z,46.06
2022-10-17T13:46:19.147Z,46.24
2022-10-17T13:47:14.013Z,46.46
2022-10-17T13:48:28.039Z,46.45
2022-10-17T13:49:39.977Z,46.42
2022-10-17T13:50:45.960Z,46.42
2022-10-17T13:51:52.445Z,46.52
2022-10-17T13:53:21.315Z,46.27
2022-10-17T13:54:32.702Z,46.31
2022-10-17T13:55:34.571Z,45.94
2022-10-17T13:56:36.775Z,46.27
2022-10-17T13:57:38.658Z,46.45
2022-10-17T13:58:50.147Z,46.60
2022-10-17T14:00:01.011Z,46.67
2022-10-17T14:01:03.516Z,46.83
2022-10-17T14:02:18.551Z,46.79
2022-10-17T14:03:21.781Z,47.12
2022-10-17T14:04:24.080Z,46.80
2022-10-17T14:05:26.422Z,46.68
2022-10-17T14:06:30.629Z,46.88
2022-10-17T14:08:16.797Z,46.84
2022-10-17T14:09:07.080Z,46.76
2022-10-17T14:10:25.031Z,47.21
2022-10-17T14:11:36.429Z,47.27
2022-10-17T14:12:42.149Z,47.70
2022-10-17T14:13:47.831Z,47.61
2022-10-17T14:15:09.663Z,47.73
2022-10-17T14:16:00.411Z,47.94
2022-10-17T14:17:02.498Z,48.02
2022-10-17T14:18:10.448Z,48.33
2022-10-17T14:19:31.236Z,48.61
2022-10-17T14:21:28.687Z,48.36
2022-10-17T14:21:48.103Z,48.50
2022-10-17T14:23:04.458Z,48.35
2022-10-17T14:24:17.698Z,48.59
2022-10-17T14:25:38.080Z,48.98
2022-10-17T14:26:48.594Z,49.17
2022-10-17T14:27:56.490Z,49.32
2022-10-17T14:29:04.788Z,49.25
2022-10-17T14:30:55.198Z,49.26
2022-10-17T14:31:37.050Z,49.51
2022-10-17T14:32:42.295Z,49.63
2022-10-17T14:33:50.666Z,49.60